Bei Facebook empfehlenBei Twitter postenGoogle plusPinterest

Das Wetter im Erzgebirge am 13.05.2015

Wetter und Klima am 13.05.2015 Holzhau im Erzgebirge (630m ü.NN)
Letzte gemessene Temperatur und Uhrzeit der Messung23:45:00 Uhr6.30 °C
Temperatur (Maximum / Höchstwert) und Uhrzeit der Messung17:15:00 Uhr17.90 °C
Temperatur (Minimum / Tiefstwert) und Uhrzeit der Messung23:30:006.10 °C
Errechneter Absolutwert der Temperaturschwankungen zwischen Tmin und Tmax des Tages11.80 K
Errechnete Tagesmitteltemperatur11.88854 °C
Gesamt - Niederschlag des Tages (in flüssiger Form)0.00 Liter / m²
Luftdruck (Maximum / Höchstwert) und Zeitpunkt der Messung08:45:00 Uhr1018.90 hPa
Luftdruck (Minimum / Tiefstwert) und Zeitpunkt der Messung23:45:00 Uhr1009.50 hPa
Errechneter Absolutwert der Luftdruckschwankungen des Tages9.40 hPa
Höchste gemessene Windgeschwindigkeit und Uhrzeit der Messung01:30:00 Uhr11.88 km/h
Errechnete Windhäufigkeit in Relation zu den Messwerten des Tages3.12500 %
Niedrigste Windkühle (Windchill) und Zeitpunkt der Messung23:30:00 Uhr6.10 °C
Taupunkt (Maximum / Höchstwert) und Uhrzeit der Messung01:00:00 Uhr9.70 °C
Taupunkt (Minimum / Tiefstwert) und Uhrzeit der Messung23:30:002.90 °C
Anzahl der automatisch eingelesenen Messwerte 96

Detaillierte Wetter- und Klima- Messwerte für den 13.05.2015 in Holzhau im Erzgebirge (630m ü.NN)
ZeitTemperaturLuftdruckRel. LuftfeuchteWindWindrichtungWindchillTaupunktNiederschlag l/m²
23:45:006.30 °C1009.50 hPa82.00 %3.50 °C 
23:30:006.10 °C1009.80 hPa80.00 %2.90 °C 
23:15:006.40 °C1009.90 hPa79.00 %3.00 °C 
23:00:006.90 °C1010.00 hPa78.00 %3.30 °C 
22:45:007.50 °C1010.30 hPa77.00 %3.70 °C 
22:30:007.80 °C1010.20 hPa76.00 %3.80 °C 
22:15:007.90 °C1010.50 hPa76.00 %3.90 °C 
22:00:008.30 °C1010.60 hPa74.00 %3.90 °C 
21:45:008.40 °C1011.00 hPa73.00 %3.80 °C 
21:30:008.90 °C1011.30 hPa70.00 %3.70 °C 
21:15:009.60 °C1011.30 hPa68.00 %4.00 °C 
21:00:0010.70 °C1011.00 hPa64.00 %4.20 °C 
20:45:0011.90 °C1010.90 hPa59.00 %4.20 °C 
20:30:0013.10 °C1010.80 hPa56.00 %4.50 °C 
20:15:0014.10 °C1010.80 hPa54.00 %4.90 °C 
20:00:0014.60 °C1011.00 hPa52.00 %4.90 °C 
19:45:0015.30 °C1011.30 hPa51.00 %5.20 °C 
19:30:0015.40 °C1011.50 hPa51.00 %5.30 °C 
19:15:0015.90 °C1011.60 hPa48.00 %4.90 °C 
19:00:0016.50 °C1012.20 hPa44.00 %4.20 °C 
18:45:0016.90 °C1012.10 hPa44.00 %4.60 °C 
18:30:0017.40 °C1012.20 hPa44.00 %5.00 °C 
18:15:0017.40 °C1012.30 hPa43.00 %4.70 °C 
18:00:0017.50 °C1012.40 hPa44.00 %5.10 °C 
17:45:0017.60 °C1012.60 hPa46.00 %5.90 °C 
17:30:0017.80 °C1012.80 hPa45.00 %5.70 °C 
17:15:0017.90 °C1013.20 hPa46.00 %6.10 °C 
17:00:0017.80 °C1013.50 hPa46.00 %6.00 °C 
16:45:0017.70 °C1013.70 hPa45.00 %5.60 °C 
16:30:0017.60 °C1014.00 hPa43.00 %4.90 °C 
16:15:0017.80 °C1014.30 hPa46.00 %6.00 °C 
16:00:0017.60 °C1014.60 hPa47.00 %6.20 °C 
15:45:0017.80 °C1014.70 hPa48.00 %6.70 °C 
15:30:0017.60 °C1015.00 hPa47.00 %6.20 °C 
15:15:0017.50 °C1015.10 hPa49.00 %6.70 °C 
15:00:0017.00 °C1015.20 hPa51.00 %6.80 °C 
14:45:0016.90 °C1015.50 hPa47.00 %5.50 °C 
14:30:0016.70 °C1015.80 hPa49.00 %5.90 °C 
14:15:0016.20 °C1015.90 hPa51.00 %6.10 °C 
14:00:0016.10 °C1016.10 hPa54.00 %6.80 °C 
13:45:0016.10 °C1016.20 hPa55.00 %7.10 °C 
13:30:0015.80 °C1016.60 hPa57.00 %7.30 °C 
13:15:0015.30 °C1016.70 hPa58.00 %7.10 °C 
13:00:0015.30 °C1016.90 hPa56.00 %6.60 °C 
12:45:0015.20 °C1017.20 hPa57.00 %6.12 km/hW15.40 °C6.70 °C 
12:30:0014.80 °C1017.30 hPa59.00 %9.72 km/hNW14.40 °C6.90 °C 
12:15:0013.50 °C1017.50 hPa62.00 %6.40 °C 
12:00:0013.80 °C1017.90 hPa59.00 %5.90 °C 
11:45:0014.10 °C1017.60 hPa61.00 %6.70 °C 
11:30:0013.30 °C1018.10 hPa60.00 %5.70 °C 
11:15:0013.40 °C1018.30 hPa64.00 %6.70 °C 
11:00:0012.40 °C1018.40 hPa66.00 %6.20 °C 
10:45:0012.90 °C1018.40 hPa69.00 %7.40 °C 
10:30:0012.80 °C1018.60 hPa71.00 %7.70 °C 
10:15:0012.40 °C1018.80 hPa74.00 %7.90 °C 
10:00:0011.80 °C1018.70 hPa73.00 %7.10 °C 
09:45:0011.50 °C1018.70 hPa75.00 %7.20 °C 
09:30:0011.60 °C1018.80 hPa76.00 %7.50 °C 
09:15:0011.20 °C1018.70 hPa79.00 %7.70 °C 
09:00:0011.20 °C1018.80 hPa79.00 %7.70 °C 
08:45:0010.60 °C1018.90 hPa83.00 %7.80 °C 
08:30:0010.40 °C1018.70 hPa86.00 %8.20 °C 
08:15:009.40 °C1018.80 hPa90.00 %7.80 °C 
08:00:009.10 °C1018.80 hPa90.00 %7.50 °C 
07:45:008.90 °C1018.80 hPa90.00 %7.40 °C 
07:30:008.80 °C1018.70 hPa91.00 %7.40 °C 
07:15:008.30 °C1018.30 hPa91.00 %6.90 °C 
07:00:007.50 °C1018.40 hPa91.00 %6.10 °C 
06:45:007.10 °C1018.60 hPa90.00 %5.60 °C 
06:30:006.90 °C1018.40 hPa90.00 %5.40 °C 
06:15:006.70 °C1018.30 hPa90.00 %5.20 °C 
06:00:006.70 °C1018.30 hPa90.00 %5.20 °C 
05:45:006.90 °C1018.20 hPa90.00 %5.40 °C 
05:30:006.90 °C1018.20 hPa90.00 %5.40 °C 
05:15:007.00 °C1018.10 hPa90.00 %5.50 °C 
05:00:007.30 °C1018.10 hPa90.00 %5.80 °C 
04:45:007.40 °C1018.00 hPa90.00 %5.90 °C 
04:30:007.40 °C1017.90 hPa90.00 %5.90 °C 
04:15:007.40 °C1017.90 hPa90.00 %5.90 °C 
04:00:007.60 °C1017.80 hPa89.00 %5.90 °C 
03:45:007.90 °C1017.90 hPa89.00 %6.20 °C 
03:30:008.30 °C1017.80 hPa90.00 %6.80 °C 
03:15:008.50 °C1017.70 hPa90.00 %7.00 °C 
03:00:008.80 °C1017.60 hPa90.00 %7.30 °C 
02:45:008.90 °C1017.60 hPa90.00 %7.40 °C 
02:30:009.20 °C1017.70 hPa90.00 %7.60 °C 
02:15:009.30 °C1017.60 hPa90.00 %7.70 °C 
02:00:009.40 °C1017.60 hPa90.00 %7.80 °C 
01:45:009.50 °C1017.30 hPa90.00 %7.90 °C 
01:30:009.90 °C1017.20 hPa90.00 %11.88 km/hNW8.20 °C8.30 °C 
01:15:0010.40 °C1017.40 hPa90.00 %8.80 °C 
01:00:0011.10 °C1017.00 hPa91.00 %9.70 °C 
00:45:0011.10 °C1016.80 hPa91.00 %9.70 °C 
00:30:0011.30 °C1016.80 hPa90.00 %9.70 °C 
00:15:0011.30 °C1017.10 hPa90.00 %9.70 °C 
00:00:0011.30 °C1017.20 hPa89.00 %9.60 °C 

Permanenter Link zu dieser Seite: Wetter im Erzgebirge am 13.05.2015
Performance-Info: Die Erstellung der Seite / Statistik(en) / Tabelle(n) erforderte 5 Datenbankserver-Abfrage(n) und dauerte 99 Millisekunden. (Dieser Messwert ist von der Gesamt-Auslastung des Servers abhängig.)
Erzgebirge - Wetter | Erzgebirge - Wetter (Mobilgeräte) | Komplette Klimadatenbank